createdAt,value
2023-05-16T00:02:38.451Z,15.50
2023-05-16T00:05:24.619Z,15.60
2023-05-16T00:08:10.033Z,15.50
2023-05-16T00:10:55.703Z,15.60
2023-05-16T00:13:41.096Z,15.50
2023-05-16T00:16:26.411Z,15.60
2023-05-16T00:19:11.948Z,15.50
2023-05-16T00:21:57.951Z,15.50
2023-05-16T00:24:43.948Z,15.50
2023-05-16T00:27:29.188Z,15.50
2023-05-16T00:30:14.749Z,15.50
2023-05-16T00:33:00.412Z,15.50
2023-05-16T00:35:45.911Z,15.50
2023-05-16T00:38:31.346Z,15.50
2023-05-16T00:41:18.274Z,15.50
2023-05-16T00:44:04.028Z,15.50
2023-05-16T00:46:49.678Z,15.50
2023-05-16T00:49:35.549Z,15.50
2023-05-16T00:52:21.413Z,15.50
2023-05-16T00:55:08.238Z,15.50
2023-05-16T00:57:53.867Z,15.50
2023-05-16T01:00:39.266Z,15.50
2023-05-16T01:03:24.914Z,15.50
2023-05-16T01:06:10.751Z,15.50
2023-05-16T01:08:56.332Z,15.50
2023-05-16T01:11:52.264Z,15.50
2023-05-16T01:15:06.784Z,15.50
2023-05-16T01:18:11.965Z,15.50
2023-05-16T01:21:08.154Z,15.50
2023-05-16T01:24:08.577Z,15.50
2023-05-16T01:26:56.386Z,15.50
2023-05-16T01:29:41.952Z,15.40
2023-05-16T01:32:27.531Z,15.50
2023-05-16T01:35:17.075Z,15.40
2023-05-16T01:38:18.711Z,15.50
2023-05-16T01:41:21.858Z,15.40
2023-05-16T01:44:20.975Z,15.40
2023-05-16T01:47:13.788Z,15.40
2023-05-16T01:50:14.534Z,15.40
2023-05-16T01:53:09.410Z,15.30
2023-05-16T01:55:58.049Z,15.30
2023-05-16T01:58:44.400Z,15.30
2023-05-16T02:01:30.889Z,15.30
2023-05-16T02:04:16.575Z,15.20
2023-05-16T02:07:02.615Z,15.20
2023-05-16T02:09:47.909Z,15.20
2023-05-16T02:12:33.318Z,15.20
2023-05-16T02:15:19.272Z,15.20
2023-05-16T02:18:04.927Z,15.20
2023-05-16T02:20:50.722Z,15.20
2023-05-16T02:23:36.341Z,15.20
2023-05-16T02:26:21.799Z,15.20
2023-05-16T02:29:07.342Z,15.20
2023-05-16T02:31:52.735Z,15.20
2023-05-16T02:34:38.275Z,15.20
2023-05-16T02:37:23.829Z,15.30
2023-05-16T02:40:10.736Z,15.30
2023-05-16T02:42:56.273Z,15.30
2023-05-16T02:45:42.116Z,15.30
2023-05-16T02:48:27.472Z,15.30
2023-05-16T02:51:12.686Z,15.30
2023-05-16T02:53:58.147Z,15.40
2023-05-16T02:56:43.980Z,15.30
2023-05-16T02:59:29.446Z,15.40
2023-05-16T03:02:14.821Z,15.40
2023-05-16T03:05:00.187Z,15.40
2023-05-16T03:07:45.560Z,15.40
2023-05-16T03:10:30.851Z,15.50
2023-05-16T03:13:16.337Z,15.50
2023-05-16T03:16:02.189Z,15.50
2023-05-16T03:18:48.465Z,15.60
2023-05-16T03:21:33.894Z,15.60
2023-05-16T03:24:19.348Z,15.60
2023-05-16T03:27:05.471Z,15.60
2023-05-16T03:29:51.309Z,15.70
2023-05-16T03:32:38.547Z,15.70
2023-05-16T03:35:24.175Z,15.80
2023-05-16T03:38:10.027Z,15.80
2023-05-16T03:40:55.574Z,15.80
2023-05-16T03:43:41.007Z,15.90
2023-05-16T03:46:27.062Z,15.90
2023-05-16T03:49:12.314Z,16.00
2023-05-16T03:51:57.753Z,16.00
2023-05-16T03:54:43.044Z,16.10
2023-05-16T03:57:30.901Z,16.10
2023-05-16T04:00:16.964Z,16.00
2023-05-16T04:03:02.708Z,16.10
2023-05-16T04:05:48.619Z,16.10
2023-05-16T04:08:34.134Z,16.10
2023-05-16T04:11:19.607Z,16.10
2023-05-16T04:14:05.118Z,16.20
2023-05-16T04:16:50.575Z,16.20
2023-05-16T04:19:36.035Z,16.20
2023-05-16T04:22:22.694Z,16.20
2023-05-16T04:25:09.306Z,16.20
2023-05-16T04:27:55.049Z,16.20
2023-05-16T04:30:40.372Z,16.20
2023-05-16T04:33:25.879Z,16.30
2023-05-16T04:36:11.232Z,16.30
2023-05-16T04:38:57.437Z,16.30
2023-05-16T04:41:43.137Z,16.20
2023-05-16T04:44:28.743Z,16.20
2023-05-16T04:47:14.657Z,16.20
2023-05-16T04:50:00.383Z,16.20
2023-05-16T04:52:46.266Z,16.10
2023-05-16T04:55:32.034Z,16.10
2023-05-16T04:58:17.959Z,16.00
2023-05-16T05:01:04.291Z,16.10
2023-05-16T05:03:49.885Z,16.10
2023-05-16T05:06:35.328Z,16.10
2023-05-16T05:09:20.924Z,16.00
2023-05-16T05:12:07.173Z,16.00
2023-05-16T05:14:52.804Z,16.00
2023-05-16T05:17:38.455Z,16.00
2023-05-16T05:20:24.245Z,15.90
2023-05-16T05:23:09.746Z,15.90
2023-05-16T05:25:55.080Z,16.00
2023-05-16T05:28:42.134Z,16.00
2023-05-16T05:31:29.673Z,16.10
2023-05-16T05:34:15.083Z,16.00
2023-05-16T05:37:00.606Z,16.00
2023-05-16T05:39:46.123Z,16.00
2023-05-16T05:42:31.555Z,15.90
2023-05-16T05:45:17.001Z,15.90
2023-05-16T05:48:02.475Z,15.90
2023-05-16T05:50:48.014Z,15.80
2023-05-16T05:53:34.013Z,15.80
2023-05-16T05:56:19.718Z,15.70
2023-05-16T05:59:05.561Z,15.60
2023-05-16T06:01:54.735Z,15.60
2023-05-16T06:04:40.289Z,15.50
2023-05-16T06:07:25.859Z,15.50
2023-05-16T06:10:15.419Z,15.50
2023-05-16T06:13:01.061Z,15.50
2023-05-16T06:15:54.042Z,15.50
2023-05-16T06:18:40.692Z,15.50
2023-05-16T06:21:26.635Z,15.60
2023-05-16T06:24:20.676Z,15.60
2023-05-16T06:27:06.723Z,15.60
2023-05-16T06:29:52.323Z,15.60
2023-05-16T06:32:37.907Z,15.50
2023-05-16T06:35:23.428Z,15.50
2023-05-16T06:38:09.011Z,15.60
2023-05-16T06:40:54.430Z,15.60
2023-05-16T06:43:41.277Z,15.60
2023-05-16T06:46:26.777Z,15.70
2023-05-16T06:49:12.108Z,15.80
2023-05-16T06:51:57.991Z,15.90
2023-05-16T06:54:43.522Z,15.90
2023-05-16T06:57:29.056Z,16.00
2023-05-16T07:00:15.924Z,16.00
2023-05-16T07:03:01.565Z,16.10
2023-05-16T07:05:47.203Z,16.20
2023-05-16T07:08:33.066Z,16.30
2023-05-16T07:11:18.683Z,16.30
2023-05-16T07:14:07.566Z,16.40
2023-05-16T07:16:53.346Z,16.40
2023-05-16T07:19:39.191Z,16.40
2023-05-16T07:22:25.126Z,16.50
2023-05-16T07:25:10.602Z,16.50
2023-05-16T07:27:56.098Z,16.50
2023-05-16T07:30:41.458Z,16.60
2023-05-16T07:33:26.987Z,16.60
2023-05-16T07:36:16.981Z,16.70
2023-05-16T07:39:03.778Z,16.70
2023-05-16T07:41:49.380Z,16.80
2023-05-16T07:44:35.421Z,16.90
2023-05-16T07:47:20.683Z,17.00
2023-05-16T07:50:06.842Z,17.00
2023-05-16T07:52:52.629Z,17.10
2023-05-16T07:55:38.002Z,17.10
2023-05-16T07:58:23.465Z,17.10
2023-05-16T08:01:09.092Z,17.10
2023-05-16T08:03:54.636Z,17.10
2023-05-16T08:06:40.160Z,17.10
2023-05-16T08:09:25.658Z,17.20
2023-05-16T08:12:11.261Z,17.30
2023-05-16T08:14:57.219Z,17.40
2023-05-16T08:17:42.717Z,17.30
2023-05-16T08:20:28.447Z,17.30
2023-05-16T08:23:14.808Z,17.30
2023-05-16T08:26:00.250Z,17.40
2023-05-16T08:28:45.835Z,17.30
2023-05-16T08:31:31.307Z,17.30
2023-05-16T08:34:16.816Z,17.40
2023-05-16T08:37:02.185Z,17.40
2023-05-16T08:39:47.735Z,17.60
2023-05-16T08:42:34.579Z,17.90
2023-05-16T08:45:21.313Z,18.20
2023-05-16T08:48:10.393Z,18.70
2023-05-16T08:50:56.515Z,19.10
2023-05-16T08:53:53.087Z,19.60
2023-05-16T08:56:39.292Z,20.10
2023-05-16T08:59:25.065Z,20.30
2023-05-16T09:02:10.742Z,20.60
2023-05-16T09:04:58.662Z,20.90
2023-05-16T09:07:45.638Z,21.20
2023-05-16T09:10:31.245Z,21.20
2023-05-16T09:13:16.630Z,21.30
2023-05-16T09:16:21.245Z,21.20
2023-05-16T09:19:07.124Z,21.20
2023-05-16T09:21:53.125Z,21.20
2023-05-16T09:24:41.085Z,21.20
2023-05-16T09:27:26.861Z,21.50
2023-05-16T09:30:23.071Z,21.70
2023-05-16T09:33:08.742Z,21.80
2023-05-16T09:36:04.087Z,21.80
2023-05-16T09:38:53.518Z,21.60
2023-05-16T09:41:39.469Z,21.20
2023-05-16T09:44:25.345Z,21.00
2023-05-16T09:47:11.096Z,21.00
2023-05-16T09:49:57.084Z,21.10
2023-05-16T09:52:43.802Z,20.90
2023-05-16T09:55:30.985Z,20.70
2023-05-16T09:58:17.743Z,20.70
2023-05-16T10:01:04.421Z,20.50
2023-05-16T10:03:51.671Z,20.40
2023-05-16T10:06:37.905Z,20.40
2023-05-16T10:09:24.449Z,20.30
2023-05-16T10:12:13.882Z,20.00
2023-05-16T10:15:03.633Z,20.00
2023-05-16T10:17:52.326Z,20.00
2023-05-16T10:20:41.855Z,20.20
2023-05-16T10:23:28.744Z,20.40
2023-05-16T10:26:17.619Z,20.20
2023-05-16T10:29:04.188Z,20.20
2023-05-16T10:31:50.024Z,19.90
2023-05-16T10:34:36.567Z,19.70
2023-05-16T10:37:24.225Z,19.60
2023-05-16T10:40:10.646Z,19.40
2023-05-16T10:43:05.474Z,19.40
2023-05-16T10:46:16.445Z,19.50
2023-05-16T10:49:23.907Z,19.60
2023-05-16T10:52:12.237Z,19.90
2023-05-16T10:55:03.758Z,20.30
2023-05-16T10:57:49.331Z,20.60
2023-05-16T11:00:35.007Z,21.10
2023-05-16T11:03:23.548Z,21.70
2023-05-16T11:06:10.048Z,22.40
2023-05-16T11:09:04.676Z,22.40
2023-05-16T11:11:53.502Z,22.00
2023-05-16T11:14:41.807Z,21.60
2023-05-16T11:17:27.263Z,21.40
2023-05-16T11:20:30.425Z,21.20
2023-05-16T11:23:16.039Z,20.70
2023-05-16T11:26:01.416Z,20.50
2023-05-16T11:28:50.132Z,20.50
2023-05-16T11:31:35.705Z,20.50
2023-05-16T11:34:21.926Z,20.70
2023-05-16T11:37:07.684Z,20.80
2023-05-16T11:39:53.927Z,20.70
2023-05-16T11:42:47.655Z,20.60
2023-05-16T11:45:32.893Z,20.50
2023-05-16T11:48:28.590Z,20.40
2023-05-16T11:51:19.792Z,20.30
2023-05-16T11:54:05.849Z,20.20
2023-05-16T11:56:52.264Z,20.10
2023-05-16T11:59:38.426Z,20.10
2023-05-16T12:02:24.178Z,20.00
2023-05-16T12:05:11.074Z,19.90
2023-05-16T12:07:56.758Z,19.80
2023-05-16T12:10:42.795Z,19.70
2023-05-16T12:13:28.883Z,19.60
2023-05-16T12:16:14.630Z,19.70
2023-05-16T12:19:01.460Z,19.70
2023-05-16T12:21:47.215Z,19.80
2023-05-16T12:24:32.795Z,19.80
2023-05-16T12:27:23.493Z,19.60
2023-05-16T12:30:13.606Z,19.50
2023-05-16T12:33:09.101Z,19.50
2023-05-16T12:35:55.027Z,19.50
2023-05-16T12:38:40.458Z,19.40
2023-05-16T12:41:25.848Z,19.40
2023-05-16T12:44:16.359Z,19.40
2023-05-16T12:47:02.770Z,19.30
2023-05-16T12:49:49.151Z,19.40
2023-05-16T12:52:34.618Z,19.40
2023-05-16T12:55:22.525Z,19.40
2023-05-16T12:58:10.797Z,19.40
2023-05-16T13:00:56.372Z,19.30
2023-05-16T13:03:42.016Z,19.30
2023-05-16T13:06:27.865Z,19.50
2023-05-16T13:09:13.610Z,19.80
2023-05-16T13:11:59.535Z,19.90
2023-05-16T13:14:45.553Z,20.00
2023-05-16T13:17:31.069Z,19.90
2023-05-16T13:20:16.533Z,19.90
2023-05-16T13:23:02.768Z,19.90
2023-05-16T13:25:49.530Z,19.70
2023-05-16T13:28:35.735Z,19.70
2023-05-16T13:31:22.356Z,19.80
2023-05-16T13:34:08.508Z,19.70
2023-05-16T13:36:54.912Z,19.60
2023-05-16T13:39:40.714Z,19.60
2023-05-16T13:42:26.120Z,19.60
2023-05-16T13:45:11.682Z,20.00
2023-05-16T13:47:57.140Z,20.60
2023-05-16T13:50:44.300Z,21.30
2023-05-16T13:53:30.200Z,22.00
2023-05-16T13:56:15.616Z,22.50
2023-05-16T13:59:06.553Z,22.70
2023-05-16T14:01:52.869Z,22.80
2023-05-16T14:04:38.334Z,22.70
2023-05-16T14:07:23.727Z,22.60
2023-05-16T14:10:09.931Z,22.50
2023-05-16T14:12:55.288Z,22.40
2023-05-16T14:15:40.639Z,22.20
2023-05-16T14:18:26.135Z,22.00
2023-05-16T14:21:11.955Z,21.90
2023-05-16T14:23:57.874Z,21.70
2023-05-16T14:26:43.424Z,21.70
2023-05-16T14:29:29.106Z,21.60
2023-05-16T14:32:15.323Z,21.50
2023-05-16T14:35:00.976Z,21.30
2023-05-16T14:37:46.404Z,21.20
2023-05-16T14:40:31.958Z,21.10
2023-05-16T14:43:17.810Z,21.20
2023-05-16T14:46:03.294Z,21.20
2023-05-16T14:48:49.255Z,21.00
2023-05-16T14:51:34.762Z,21.00
2023-05-16T14:54:20.213Z,21.10
2023-05-16T14:57:05.896Z,21.10
2023-05-16T14:59:51.579Z,21.00
2023-05-16T15:02:36.864Z,21.00
2023-05-16T15:05:23.065Z,20.80
2023-05-16T15:08:08.691Z,20.70
2023-05-16T15:10:54.022Z,20.60
2023-05-16T15:13:39.558Z,20.50
2023-05-16T15:16:24.995Z,20.40
2023-05-16T15:19:10.319Z,20.40
2023-05-16T15:21:55.998Z,20.30
2023-05-16T15:24:41.690Z,20.10
2023-05-16T15:27:27.468Z,20.10
2023-05-16T15:30:13.315Z,20.10
2023-05-16T15:32:59.117Z,20.20
2023-05-16T15:35:44.844Z,20.10
2023-05-16T15:38:30.417Z,20.20
2023-05-16T15:41:32.010Z,20.10
2023-05-16T15:44:21.649Z,20.00
2023-05-16T15:47:08.181Z,19.90
2023-05-16T15:49:53.732Z,19.90
2023-05-16T15:52:39.397Z,19.90
2023-05-16T15:55:25.840Z,19.80
2023-05-16T15:58:11.646Z,19.70
2023-05-16T16:00:57.219Z,19.70
2023-05-16T16:03:42.769Z,19.60
2023-05-16T16:06:28.155Z,19.50
2023-05-16T16:09:13.515Z,19.40
2023-05-16T16:11:58.959Z,19.40
2023-05-16T16:14:44.649Z,19.40
2023-05-16T16:17:59.543Z,19.40
2023-05-16T16:20:45.444Z,19.30
2023-05-16T16:23:41.340Z,19.30
2023-05-16T16:26:27.334Z,19.30
2023-05-16T16:29:13.862Z,19.20
2023-05-16T16:31:59.484Z,19.10
2023-05-16T16:34:48.441Z,19.10
2023-05-16T16:37:35.080Z,19.10
2023-05-16T16:40:52.570Z,19.00
2023-05-16T16:43:38.203Z,19.00
2023-05-16T16:46:23.809Z,19.00
2023-05-16T16:49:09.208Z,19.00
2023-05-16T16:51:54.650Z,19.00
2023-05-16T16:54:40.341Z,19.00
2023-05-16T16:57:28.343Z,19.00
2023-05-16T17:00:14.433Z,18.90
2023-05-16T17:03:00.599Z,18.90
2023-05-16T17:05:46.440Z,18.80
2023-05-16T17:08:32.148Z,18.80
2023-05-16T17:11:17.424Z,18.70
2023-05-16T17:14:03.226Z,18.60
2023-05-16T17:16:48.961Z,18.50
2023-05-16T17:19:34.856Z,18.40
2023-05-16T17:22:20.510Z,18.20
2023-05-16T17:25:07.656Z,18.20
2023-05-16T17:27:53.322Z,18.10
2023-05-16T17:30:38.831Z,18.00
2023-05-16T17:33:24.233Z,17.90
2023-05-16T17:36:10.279Z,17.80
2023-05-16T17:38:55.652Z,17.80
2023-05-16T17:41:41.064Z,17.70
2023-05-16T17:44:26.568Z,17.60
2023-05-16T17:47:12.525Z,17.50
2023-05-16T17:50:00.547Z,17.50
2023-05-16T17:52:46.482Z,17.50
2023-05-16T17:55:31.747Z,17.40
2023-05-16T17:58:17.919Z,17.40
2023-05-16T18:01:03.671Z,17.30
2023-05-16T18:03:49.403Z,17.30
2023-05-16T18:06:39.456Z,17.20
2023-05-16T18:09:24.956Z,17.10
2023-05-16T18:12:10.455Z,17.00
2023-05-16T18:14:56.428Z,17.00
2023-05-16T18:17:42.380Z,16.90
2023-05-16T18:20:28.377Z,16.80
2023-05-16T18:23:14.400Z,16.70
2023-05-16T18:25:59.829Z,16.60
2023-05-16T18:28:46.175Z,16.50
2023-05-16T18:31:31.906Z,16.40
2023-05-16T18:34:17.690Z,16.30
2023-05-16T18:37:03.418Z,16.20
2023-05-16T18:39:49.020Z,16.10
2023-05-16T18:42:35.041Z,16.00
2023-05-16T18:45:20.636Z,15.90
2023-05-16T18:48:07.036Z,15.80
2023-05-16T18:50:52.774Z,15.80
2023-05-16T18:53:38.266Z,15.70
2023-05-16T18:56:23.738Z,15.60
2023-05-16T18:59:09.775Z,15.60
2023-05-16T19:01:55.567Z,15.50
2023-05-16T19:04:41.256Z,15.40
2023-05-16T19:07:26.672Z,15.30
2023-05-16T19:10:12.243Z,15.30
2023-05-16T19:12:58.158Z,15.20
2023-05-16T19:15:43.919Z,15.10
2023-05-16T19:18:29.800Z,15.00
2023-05-16T19:21:15.694Z,14.90
2023-05-16T19:24:01.291Z,14.90
2023-05-16T19:26:46.896Z,14.80
2023-05-16T19:29:32.289Z,14.80
2023-05-16T19:32:17.744Z,14.80
2023-05-16T19:35:03.359Z,14.80
2023-05-16T19:37:49.218Z,14.70
2023-05-16T19:40:36.160Z,14.70
2023-05-16T19:43:30.897Z,14.60
2023-05-16T19:46:16.535Z,14.60
2023-05-16T19:49:02.705Z,14.50
2023-05-16T19:51:48.603Z,14.50
2023-05-16T19:54:36.672Z,14.40
2023-05-16T19:57:22.123Z,14.40
2023-05-16T20:00:08.683Z,14.40
2023-05-16T20:02:54.248Z,14.30
2023-05-16T20:05:39.687Z,14.30
2023-05-16T20:08:25.126Z,14.20
2023-05-16T20:11:13.317Z,14.20
2023-05-16T20:14:02.917Z,14.20
2023-05-16T20:16:49.990Z,14.20
2023-05-16T20:19:36.103Z,14.10
2023-05-16T20:22:21.942Z,14.10
2023-05-16T20:25:09.440Z,14.10
2023-05-16T20:27:55.418Z,14.00
2023-05-16T20:30:41.387Z,14.00
2023-05-16T20:33:26.944Z,14.00
2023-05-16T20:36:15.736Z,14.10
2023-05-16T20:39:01.747Z,14.10
2023-05-16T20:41:47.138Z,14.10
2023-05-16T20:44:32.772Z,14.10
2023-05-16T20:47:18.438Z,14.00
2023-05-16T20:50:04.644Z,14.00
2023-05-16T20:52:50.400Z,14.10
2023-05-16T20:55:36.130Z,14.00
2023-05-16T20:58:21.647Z,14.00
2023-05-16T21:01:07.045Z,14.00
2023-05-16T21:04:03.226Z,14.00
2023-05-16T21:07:05.807Z,13.90
2023-05-16T21:09:53.327Z,13.90
2023-05-16T21:12:39.177Z,13.90
2023-05-16T21:15:25.026Z,13.80
2023-05-16T21:18:10.874Z,13.80
2023-05-16T21:20:56.518Z,13.80
2023-05-16T21:23:42.172Z,13.70
2023-05-16T21:26:30.589Z,13.70
2023-05-16T21:29:16.406Z,13.70
2023-05-16T21:32:01.805Z,13.70
2023-05-16T21:34:47.261Z,13.70
2023-05-16T21:37:33.271Z,13.60
2023-05-16T21:40:19.343Z,13.60
2023-05-16T21:43:10.324Z,13.60
2023-05-16T21:45:56.211Z,13.50
2023-05-16T21:48:41.857Z,13.50
2023-05-16T21:51:27.656Z,13.50
2023-05-16T21:54:13.223Z,13.50
2023-05-16T21:56:58.638Z,13.40
2023-05-16T21:59:44.244Z,13.40
2023-05-16T22:02:29.803Z,13.30
2023-05-16T22:05:15.684Z,13.30
2023-05-16T22:08:01.231Z,13.30
2023-05-16T22:10:47.047Z,13.30
2023-05-16T22:13:32.406Z,13.20
2023-05-16T22:16:17.920Z,13.20
2023-05-16T22:19:03.387Z,13.20
2023-05-16T22:21:49.350Z,13.10
2023-05-16T22:24:34.955Z,13.10
2023-05-16T22:27:20.445Z,13.10
2023-05-16T22:30:07.395Z,13.00
2023-05-16T22:32:53.251Z,13.00
2023-05-16T22:35:39.166Z,13.00
2023-05-16T22:38:24.545Z,13.00
2023-05-16T22:41:10.581Z,13.10
2023-05-16T22:43:56.150Z,13.10
2023-05-16T22:46:41.781Z,13.20
2023-05-16T22:49:27.517Z,13.10
2023-05-16T22:52:12.786Z,13.20
2023-05-16T22:54:58.062Z,13.20
2023-05-16T22:57:43.601Z,13.20
2023-05-16T23:00:29.072Z,13.30
2023-05-16T23:03:14.677Z,13.30
2023-05-16T23:06:00.335Z,13.30
2023-05-16T23:08:45.819Z,13.30
2023-05-16T23:11:32.592Z,13.40
2023-05-16T23:14:18.137Z,13.40
2023-05-16T23:17:03.725Z,13.50
2023-05-16T23:19:49.347Z,13.50
2023-05-16T23:22:35.071Z,13.50
2023-05-16T23:25:20.889Z,13.50
2023-05-16T23:28:06.542Z,13.50
2023-05-16T23:30:52.255Z,13.50
2023-05-16T23:33:38.161Z,13.50
2023-05-16T23:36:23.523Z,13.50
2023-05-16T23:39:08.894Z,13.60
2023-05-16T23:41:54.923Z,13.60
2023-05-16T23:44:40.805Z,13.60
2023-05-16T23:47:26.362Z,13.60
2023-05-16T23:50:12.005Z,13.70
2023-05-16T23:52:57.470Z,13.70
2023-05-16T23:55:42.811Z,13.70
2023-05-16T23:58:28.380Z,13.70
